createdAt,value
2023-09-08T00:01:01.955Z,100320.47
2023-09-08T00:03:28.792Z,100321.75
2023-09-08T00:05:56.838Z,100313.69
2023-09-08T00:08:25.282Z,100313.69
2023-09-08T00:10:53.180Z,100319.00
2023-09-08T00:13:20.242Z,100322.94
2023-09-08T00:15:50.054Z,100318.16
2023-09-08T00:18:17.246Z,100316.28
2023-09-08T00:20:44.155Z,100323.41
2023-09-08T00:23:14.592Z,100312.66
2023-09-08T00:25:41.729Z,100317.81
2023-09-08T00:28:09.157Z,100315.78
2023-09-08T00:30:36.411Z,100316.88
2023-09-08T00:33:03.608Z,100315.16
2023-09-08T00:35:31.564Z,100319.41
2023-09-08T00:37:59.399Z,100310.31
2023-09-08T00:40:29.115Z,100311.13
2023-09-08T00:42:56.382Z,100316.53
2023-09-08T00:45:30.829Z,100312.06
2023-09-08T00:48:00.670Z,100310.66
2023-09-08T00:50:27.687Z,100313.28
2023-09-08T00:52:55.914Z,100301.41
2023-09-08T00:55:26.060Z,100305.25
2023-09-08T00:57:53.901Z,100296.88
2023-09-08T01:00:23.748Z,100300.53
2023-09-08T01:02:51.004Z,100300.41
2023-09-08T01:05:21.563Z,100300.44
2023-09-08T01:07:50.066Z,100303.84
2023-09-08T01:10:17.688Z,100294.09
2023-09-08T01:12:44.864Z,100302.06
2023-09-08T01:15:15.361Z,100297.25
2023-09-08T01:17:42.349Z,100305.00
2023-09-08T01:20:18.594Z,100298.78
2023-09-08T01:23:12.369Z,100299.47
2023-09-08T01:26:07.320Z,100293.28
2023-09-08T01:28:35.369Z,100293.44
2023-09-08T01:31:13.186Z,100285.34
2023-09-08T01:33:43.628Z,100283.75
2023-09-08T01:36:11.044Z,100283.84
2023-09-08T01:38:38.341Z,100278.84
2023-09-08T01:41:05.717Z,100288.50
2023-09-08T01:43:32.584Z,100274.16
2023-09-08T01:46:01.692Z,100286.78
2023-09-08T01:48:28.628Z,100280.69
2023-09-08T01:50:57.492Z,100283.69
2023-09-08T01:53:24.407Z,100287.50
2023-09-08T01:55:51.429Z,100285.66
2023-09-08T01:58:18.430Z,100289.47
2023-09-08T02:00:50.831Z,100282.66
2023-09-08T02:03:17.859Z,100285.50
2023-09-08T02:05:46.209Z,100287.59
2023-09-08T02:08:16.303Z,100289.13
2023-09-08T02:10:43.506Z,100289.91
2023-09-08T02:13:11.819Z,100287.00
2023-09-08T02:15:39.846Z,100290.13
2023-09-08T02:18:08.640Z,100283.13
2023-09-08T02:20:35.746Z,100281.50
2023-09-08T02:23:08.046Z,100278.28
2023-09-08T02:25:35.323Z,100281.47
2023-09-08T02:28:02.301Z,100275.50
2023-09-08T02:30:30.242Z,100278.09
2023-09-08T02:32:57.424Z,100280.56
2023-09-08T02:35:28.070Z,100281.00
2023-09-08T02:37:55.090Z,100285.16
2023-09-08T02:40:22.296Z,100276.63
2023-09-08T02:42:49.528Z,100281.94
2023-09-08T02:45:16.458Z,100283.31
2023-09-08T02:47:43.421Z,100283.34
2023-09-08T02:50:11.822Z,100275.63
2023-09-08T02:52:38.711Z,100273.50
2023-09-08T02:55:08.154Z,100272.16
2023-09-08T02:57:36.217Z,100274.38
2023-09-08T03:00:03.510Z,100267.72
2023-09-08T03:02:31.794Z,100265.56
2023-09-08T03:05:00.355Z,100259.69
2023-09-08T03:07:28.499Z,100255.34
2023-09-08T03:09:56.770Z,100256.28
2023-09-08T03:12:23.509Z,100259.00
2023-09-08T03:14:53.120Z,100258.41
2023-09-08T03:17:20.201Z,100250.13
2023-09-08T03:19:47.805Z,100250.88
2023-09-08T03:22:14.990Z,100256.56
2023-09-08T03:24:43.887Z,100255.22
2023-09-08T03:27:13.990Z,100254.19
2023-09-08T03:29:41.944Z,100261.75
2023-09-08T03:32:09.120Z,100259.91
2023-09-08T03:34:40.712Z,100259.97
2023-09-08T03:37:07.926Z,100260.59
2023-09-08T03:39:34.978Z,100268.34
2023-09-08T03:42:02.692Z,100268.47
2023-09-08T03:44:34.890Z,100264.00
2023-09-08T03:47:04.117Z,100265.44
2023-09-08T03:49:31.283Z,100269.84
2023-09-08T03:52:00.393Z,100264.59
2023-09-08T03:54:27.160Z,100268.97
2023-09-08T03:56:54.217Z,100257.44
2023-09-08T03:59:21.152Z,100265.28
2023-09-08T04:01:48.224Z,100260.94
2023-09-08T04:04:15.638Z,100258.94
2023-09-08T04:06:42.800Z,100257.19
2023-09-08T04:09:09.916Z,100258.84
2023-09-08T04:11:37.997Z,100256.50
2023-09-08T04:14:04.845Z,100268.88
2023-09-08T04:16:33.870Z,100267.25
2023-09-08T04:19:00.690Z,100263.66
2023-09-08T04:21:28.078Z,100257.31
2023-09-08T04:23:55.270Z,100271.44
2023-09-08T04:26:22.122Z,100271.69
2023-09-08T04:28:51.159Z,100273.50
2023-09-08T04:31:19.460Z,100272.66
2023-09-08T04:33:46.574Z,100284.78
2023-09-08T04:36:14.486Z,100281.97
2023-09-08T04:38:43.488Z,100273.03
2023-09-08T04:41:10.347Z,100286.22
2023-09-08T04:43:37.588Z,100285.38
2023-09-08T04:46:04.914Z,100291.53
2023-09-08T04:48:31.911Z,100300.25
2023-09-08T04:50:58.965Z,100290.50
2023-09-08T04:53:25.998Z,100287.56
2023-09-08T04:55:53.433Z,100290.03
2023-09-08T04:58:21.800Z,100295.13
2023-09-08T05:00:50.915Z,100280.84
2023-09-08T05:03:17.823Z,100282.63
2023-09-08T05:05:46.372Z,100295.22
2023-09-08T05:08:13.740Z,100284.38
2023-09-08T05:10:41.110Z,100284.78
2023-09-08T05:13:14.058Z,100292.78
2023-09-08T05:15:49.765Z,100297.00
2023-09-08T05:18:16.899Z,100300.31
2023-09-08T05:20:44.192Z,100290.00
2023-09-08T05:23:11.080Z,100296.81
2023-09-08T05:25:42.819Z,100290.22
2023-09-08T05:28:09.649Z,100296.13
2023-09-08T05:30:37.159Z,100303.78
2023-09-08T05:33:04.102Z,100295.41
2023-09-08T05:35:30.914Z,100297.53
2023-09-08T05:37:57.869Z,100294.78
2023-09-08T05:40:25.658Z,100291.19
2023-09-08T05:42:53.185Z,100293.72
2023-09-08T05:45:20.439Z,100284.94
2023-09-08T05:47:50.373Z,100288.59
2023-09-08T05:50:19.087Z,100291.56
2023-09-08T05:52:46.364Z,100288.72
2023-09-08T05:55:13.162Z,100279.50
2023-09-08T05:57:41.973Z,100279.63
2023-09-08T06:00:10.410Z,100274.06
2023-09-08T06:02:37.356Z,100278.53
2023-09-08T06:05:04.846Z,100282.59
2023-09-08T06:07:32.131Z,100272.72
2023-09-08T06:09:58.893Z,100271.19
2023-09-08T06:12:25.890Z,100279.88
2023-09-08T06:14:52.844Z,100275.56
2023-09-08T06:17:19.652Z,100275.53
2023-09-08T06:19:46.839Z,100266.97
2023-09-08T06:22:14.721Z,100273.44
2023-09-08T06:24:41.654Z,100276.56
2023-09-08T06:27:08.714Z,100275.53
2023-09-08T06:29:37.162Z,100277.59
2023-09-08T06:32:04.144Z,100281.38
2023-09-08T06:34:32.324Z,100283.97
2023-09-08T06:36:59.517Z,100277.94
2023-09-08T06:39:27.948Z,100289.69
2023-09-08T06:41:56.138Z,100286.13
2023-09-08T06:44:23.443Z,100285.25
2023-09-08T06:46:51.407Z,100281.31
2023-09-08T06:49:19.345Z,100287.19
2023-09-08T06:51:48.690Z,100280.84
2023-09-08T06:54:16.150Z,100282.56
2023-09-08T06:56:43.481Z,100284.66
2023-09-08T06:59:10.766Z,100284.97
2023-09-08T07:01:39.536Z,100293.91
2023-09-08T07:04:07.344Z,100289.75
2023-09-08T07:06:38.282Z,100286.69
2023-09-08T07:09:05.915Z,100286.91
2023-09-08T07:11:33.077Z,100282.06
2023-09-08T07:14:02.087Z,100279.38
2023-09-08T07:16:29.077Z,100290.03
2023-09-08T07:18:55.901Z,100281.06
2023-09-08T07:21:23.927Z,100287.34
2023-09-08T07:23:52.918Z,100282.28
2023-09-08T07:26:19.797Z,100292.13
2023-09-08T07:28:50.114Z,100284.75
2023-09-08T07:31:17.389Z,100287.50
2023-09-08T07:33:45.037Z,100287.13
2023-09-08T07:36:12.962Z,100286.50
2023-09-08T07:38:40.315Z,100285.41
2023-09-08T07:41:07.131Z,100290.16
2023-09-08T07:43:41.721Z,100293.97
2023-09-08T07:46:09.359Z,100288.88
2023-09-08T07:48:37.050Z,100300.22
2023-09-08T07:51:04.238Z,100298.75
2023-09-08T07:53:32.151Z,100300.03
2023-09-08T07:55:59.094Z,100301.38
2023-09-08T07:58:26.174Z,100289.56
2023-09-08T08:00:55.928Z,100285.03
2023-09-08T08:03:22.747Z,100290.47
2023-09-08T08:05:51.409Z,100289.38
2023-09-08T08:08:18.368Z,100290.34
2023-09-08T08:10:45.309Z,100288.88
2023-09-08T08:13:13.336Z,100284.22
2023-09-08T08:15:43.905Z,100285.25
2023-09-08T08:18:14.414Z,100281.78
2023-09-08T08:20:41.319Z,100283.31
2023-09-08T08:23:10.348Z,100274.84
2023-09-08T08:25:37.453Z,100276.22
2023-09-08T08:28:04.953Z,100276.50
2023-09-08T08:30:33.658Z,100275.75
2023-09-08T08:33:00.706Z,100275.88
2023-09-08T08:35:27.611Z,100268.53
2023-09-08T08:38:02.032Z,100263.00
2023-09-08T08:40:29.538Z,100259.34
2023-09-08T08:43:02.612Z,100259.34
2023-09-08T08:45:31.326Z,100257.84
2023-09-08T08:48:02.503Z,100260.31
2023-09-08T08:50:31.944Z,100259.09
2023-09-08T08:53:03.543Z,100259.47
2023-09-08T08:55:31.832Z,100261.38
2023-09-08T08:58:05.590Z,100258.72
2023-09-08T09:00:35.328Z,100266.25
2023-09-08T09:03:14.177Z,100257.13
2023-09-08T09:05:48.423Z,100253.19
2023-09-08T09:08:18.004Z,100257.78
2023-09-08T09:10:45.210Z,100250.94
2023-09-08T09:13:13.247Z,100259.75
2023-09-08T09:15:43.922Z,100251.03
2023-09-08T09:18:11.152Z,100257.97
2023-09-08T09:20:39.362Z,100256.84
2023-09-08T09:23:06.616Z,100254.88
2023-09-08T09:25:34.077Z,100253.47
2023-09-08T09:28:04.024Z,100257.78
2023-09-08T09:30:55.452Z,100252.19
2023-09-08T09:33:24.805Z,100250.00
2023-09-08T09:35:55.775Z,100247.84
2023-09-08T09:38:27.745Z,100246.84
2023-09-08T09:40:55.397Z,100238.22
2023-09-08T09:43:26.207Z,100239.94
2023-09-08T09:45:54.747Z,100238.50
2023-09-08T09:48:25.124Z,100233.81
2023-09-08T09:50:55.157Z,100224.34
2023-09-08T09:53:22.728Z,100226.72
2023-09-08T09:55:52.444Z,100232.56
2023-09-08T09:58:21.960Z,100231.69
2023-09-08T10:00:50.725Z,100228.59
2023-09-08T10:03:19.206Z,100231.25
2023-09-08T10:05:48.382Z,100219.63
2023-09-08T10:08:15.679Z,100220.75
2023-09-08T10:10:47.133Z,100214.22
2023-09-08T10:13:19.315Z,100220.72
2023-09-08T10:15:47.574Z,100226.31
2023-09-08T10:18:17.794Z,100216.78
2023-09-08T10:20:46.158Z,100216.81
2023-09-08T10:23:52.124Z,100221.41
2023-09-08T10:26:19.585Z,100216.44
2023-09-08T10:28:47.161Z,100213.50
2023-09-08T10:31:18.277Z,100212.66
2023-09-08T10:33:46.747Z,100217.47
2023-09-08T10:36:14.602Z,100215.09
2023-09-08T10:38:42.771Z,100209.56
2023-09-08T10:41:30.586Z,100206.53
2023-09-08T10:44:02.151Z,100200.84
2023-09-08T10:46:31.001Z,100200.69
2023-09-08T10:49:07.883Z,100198.41
2023-09-08T10:51:35.994Z,100198.59
2023-09-08T10:54:03.434Z,100195.63
2023-09-08T10:56:53.301Z,100189.03
2023-09-08T10:59:20.881Z,100183.94
2023-09-08T11:01:49.068Z,100185.16
2023-09-08T11:04:20.591Z,100185.72
2023-09-08T11:06:47.903Z,100181.19
2023-09-08T11:09:15.402Z,100185.50
2023-09-08T11:11:43.211Z,100182.59
2023-09-08T11:14:12.356Z,100175.38
2023-09-08T11:16:39.414Z,100178.06
2023-09-08T11:19:06.336Z,100174.34
2023-09-08T11:21:36.363Z,100173.81
2023-09-08T11:24:06.026Z,100174.78
2023-09-08T11:26:36.595Z,100174.88
2023-09-08T11:29:04.178Z,100171.31
2023-09-08T11:31:31.286Z,100173.38
2023-09-08T11:34:00.667Z,100165.63
2023-09-08T11:36:31.788Z,100167.44
2023-09-08T11:38:58.667Z,100172.00
2023-09-08T11:41:26.824Z,100166.47
2023-09-08T11:43:53.888Z,100160.09
2023-09-08T11:46:21.391Z,100162.66
2023-09-08T11:48:48.713Z,100161.94
2023-09-08T11:51:17.028Z,100153.38
2023-09-08T11:53:45.198Z,100161.50
2023-09-08T11:56:12.500Z,100158.22
2023-09-08T11:58:40.110Z,100156.13
2023-09-08T12:01:11.040Z,100155.88
2023-09-08T12:03:53.193Z,100150.38
2023-09-08T12:06:20.507Z,100149.88
2023-09-08T12:08:47.743Z,100146.00
2023-09-08T12:11:16.705Z,100144.88
2023-09-08T12:13:43.676Z,100141.47
2023-09-08T12:16:20.704Z,100131.38
2023-09-08T12:18:50.988Z,100130.72
2023-09-08T12:21:18.245Z,100131.50
2023-09-08T12:23:52.847Z,100123.91
2023-09-08T12:26:25.396Z,100125.88
2023-09-08T12:28:52.529Z,100111.69
2023-09-08T12:31:20.919Z,100122.25
2023-09-08T12:33:48.022Z,100114.28
2023-09-08T12:36:19.916Z,100113.59
2023-09-08T12:38:54.291Z,100107.91
2023-09-08T12:41:21.472Z,100113.75
2023-09-08T12:43:48.855Z,100116.47
2023-09-08T12:46:19.985Z,100116.09
2023-09-08T12:48:49.433Z,100108.38
2023-09-08T12:51:16.486Z,100110.50
2023-09-08T12:53:45.415Z,100104.06
2023-09-08T12:56:12.351Z,100109.41
2023-09-08T12:58:40.246Z,100103.00
2023-09-08T13:01:08.467Z,100105.16
2023-09-08T13:03:35.348Z,100101.34
2023-09-08T13:06:02.159Z,100104.31
2023-09-08T13:08:29.145Z,100094.16
2023-09-08T13:10:57.255Z,100095.41
2023-09-08T13:13:24.453Z,100087.56
2023-09-08T13:15:53.591Z,100085.63
2023-09-08T13:18:21.827Z,100083.34
2023-09-08T13:20:48.942Z,100084.06
2023-09-08T13:23:17.039Z,100089.22
2023-09-08T13:25:45.878Z,100083.25
2023-09-08T13:28:13.001Z,100072.81
2023-09-08T13:30:40.801Z,100084.00
2023-09-08T13:33:08.820Z,100082.28
2023-09-08T13:35:35.712Z,100082.91
2023-09-08T13:38:04.358Z,100082.47
2023-09-08T13:40:32.209Z,100075.47
2023-09-08T13:42:59.221Z,100074.44
2023-09-08T13:45:27.829Z,100064.56
2023-09-08T13:47:55.250Z,100068.75
2023-09-08T13:50:26.941Z,100063.28
2023-09-08T13:52:55.852Z,100062.94
2023-09-08T13:55:37.078Z,100061.69
2023-09-08T13:58:08.796Z,100061.50
2023-09-08T14:00:39.089Z,100066.41
2023-09-08T14:03:09.682Z,100061.91
2023-09-08T14:05:45.471Z,100054.75
2023-09-08T14:08:18.567Z,100054.72
2023-09-08T14:13:26.507Z,100048.06
2023-09-08T14:15:57.333Z,100044.63
2023-09-08T14:18:25.919Z,100037.75
2023-09-08T14:20:53.122Z,100033.25
2023-09-08T14:23:19.862Z,100024.75
2023-09-08T14:25:46.877Z,100036.00
2023-09-08T14:28:13.982Z,100022.53
2023-09-08T14:30:41.800Z,100031.16
2023-09-08T14:33:08.788Z,100025.84
2023-09-08T14:35:36.304Z,100019.28
2023-09-08T14:38:04.178Z,100019.75
2023-09-08T14:40:31.114Z,100023.63
2023-09-08T14:42:58.156Z,100013.75
2023-09-08T14:45:24.973Z,100024.56
2023-09-08T14:47:53.133Z,100018.81
2023-09-08T14:50:20.912Z,100008.22
2023-09-08T14:52:47.805Z,100016.75
2023-09-08T14:55:16.080Z,100015.91
2023-09-08T14:57:43.436Z,100011.84
2023-09-08T15:00:11.276Z,100017.25
2023-09-08T15:02:38.406Z,100020.72
2023-09-08T15:05:06.294Z,100009.78
2023-09-08T15:07:33.179Z,100007.03
2023-09-08T15:10:00.237Z,100002.31
2023-09-08T15:12:28.090Z,100004.50
2023-09-08T15:14:57.103Z,100000.50
2023-09-08T15:17:24.129Z,99991.34
2023-09-08T15:19:51.270Z,100001.47
2023-09-08T15:22:18.482Z,99993.94
2023-09-08T15:24:45.643Z,100002.78
2023-09-08T15:27:13.120Z,99999.13
2023-09-08T15:29:40.398Z,100001.03
2023-09-08T15:32:09.282Z,99997.97
2023-09-08T15:34:36.312Z,100004.38
2023-09-08T15:37:05.286Z,100001.44
2023-09-08T15:39:32.277Z,99990.63
2023-09-08T15:41:59.172Z,99991.63
2023-09-08T15:44:27.299Z,99991.50
2023-09-08T15:46:54.530Z,99992.38
2023-09-08T15:49:23.278Z,99993.84
2023-09-08T15:52:00.718Z,99987.88
2023-09-08T15:54:36.974Z,99984.19
2023-09-08T15:57:04.539Z,99984.91
2023-09-08T15:59:31.573Z,99988.63
2023-09-08T16:01:58.875Z,99989.25
2023-09-08T16:04:29.236Z,99987.22
2023-09-08T16:06:56.364Z,99981.75
2023-09-08T16:09:24.248Z,99983.34
2023-09-08T16:11:51.304Z,99975.13
2023-09-08T16:14:20.217Z,99978.38
2023-09-08T16:16:48.254Z,99980.78
2023-09-08T16:19:15.696Z,99960.97
2023-09-08T16:21:43.872Z,99966.72
2023-09-08T16:24:10.941Z,99964.00
2023-09-08T16:26:37.973Z,99968.66
2023-09-08T16:29:06.008Z,99967.56
2023-09-08T16:31:32.899Z,99959.34
2023-09-08T16:34:00.910Z,99964.78
2023-09-08T16:36:27.836Z,99961.34
2023-09-08T16:38:54.659Z,99960.50
2023-09-08T16:41:21.615Z,99959.97
2023-09-08T16:43:48.827Z,99969.56
2023-09-08T16:46:15.747Z,99965.34
2023-09-08T16:48:42.480Z,99960.69
2023-09-08T16:51:09.525Z,99953.16
2023-09-08T16:53:36.557Z,99953.28
2023-09-08T16:56:09.944Z,99955.88
2023-09-08T16:58:37.286Z,99952.06
2023-09-08T17:01:06.402Z,99960.03
2023-09-08T17:03:33.371Z,99967.91
2023-09-08T17:06:01.390Z,99959.09
2023-09-08T17:08:29.085Z,99955.84
2023-09-08T17:10:58.321Z,99960.16
2023-09-08T17:13:25.704Z,99960.91
2023-09-08T17:15:52.831Z,99959.47
2023-09-08T17:18:23.713Z,99965.84
2023-09-08T17:20:51.305Z,99963.97
2023-09-08T17:23:19.322Z,99971.63
2023-09-08T17:25:47.211Z,99968.72
2023-09-08T17:28:14.179Z,99973.94
2023-09-08T17:30:41.900Z,99970.09
2023-09-08T17:33:09.228Z,99976.53
2023-09-08T17:35:37.416Z,99975.25
2023-09-08T17:38:05.022Z,99978.53
2023-09-08T17:40:32.946Z,99986.69
2023-09-08T17:43:00.832Z,99979.16
2023-09-08T17:45:27.941Z,99974.19
2023-09-08T17:47:55.348Z,99977.03
2023-09-08T17:50:25.935Z,99972.22
2023-09-08T17:52:52.715Z,99971.81
2023-09-08T17:55:19.833Z,99971.75
2023-09-08T17:57:49.435Z,99973.59
2023-09-08T18:00:25.846Z,99978.41
2023-09-08T18:02:52.691Z,99969.25
2023-09-08T18:05:19.967Z,99975.34
2023-09-08T18:07:46.752Z,99972.53
2023-09-08T18:10:15.149Z,99969.75
2023-09-08T18:12:53.423Z,99972.94
2023-09-08T18:15:20.439Z,99976.91
2023-09-08T18:17:48.573Z,99970.34
2023-09-08T18:20:15.685Z,99976.28
2023-09-08T18:22:42.810Z,99984.03
2023-09-08T18:25:09.950Z,99986.00
2023-09-08T18:27:37.089Z,99980.59
2023-09-08T18:30:05.600Z,99993.16
2023-09-08T18:32:35.029Z,99986.16
2023-09-08T18:35:02.059Z,99986.19
2023-09-08T18:37:28.996Z,99985.88
2023-09-08T18:39:55.893Z,99982.34
2023-09-08T18:42:25.875Z,99993.75
2023-09-08T18:44:52.901Z,99984.66
2023-09-08T18:47:19.885Z,99976.13
2023-09-08T18:49:51.059Z,99978.44
2023-09-08T18:52:18.606Z,99983.34
2023-09-08T18:54:45.757Z,99984.06
2023-09-08T18:57:12.787Z,99975.16
2023-09-08T18:59:39.789Z,99980.66
2023-09-08T19:02:06.695Z,99982.59
2023-09-08T19:04:34.853Z,99981.97
2023-09-08T19:07:02.021Z,99981.06
2023-09-08T19:09:30.035Z,99986.06
2023-09-08T19:11:58.030Z,99993.97
2023-09-08T19:14:29.631Z,99990.41
2023-09-08T19:16:58.933Z,99995.38
2023-09-08T19:19:26.092Z,99983.38
2023-09-08T19:21:53.008Z,99996.25
2023-09-08T19:24:20.431Z,99995.63
2023-09-08T19:26:47.330Z,99999.50
2023-09-08T19:29:17.241Z,99991.97
2023-09-08T19:31:45.549Z,99988.75
2023-09-08T19:34:12.813Z,99998.00
2023-09-08T19:36:40.106Z,99998.28
2023-09-08T19:39:08.305Z,100005.81
2023-09-08T19:41:37.075Z,100003.81
2023-09-08T19:44:04.884Z,100002.34
2023-09-08T19:46:36.706Z,100005.34
2023-09-08T19:49:03.935Z,100007.84
2023-09-08T19:51:32.149Z,100002.81
2023-09-08T19:54:01.477Z,100006.75
2023-09-08T19:56:29.920Z,100003.41
2023-09-08T19:58:57.069Z,99999.44
2023-09-08T20:01:26.236Z,100002.47
2023-09-08T20:03:53.439Z,99999.78
2023-09-08T20:06:20.573Z,100003.84
2023-09-08T20:08:47.445Z,99999.88
2023-09-08T20:11:14.434Z,99996.41
2023-09-08T20:13:41.497Z,100001.13
2023-09-08T20:16:10.891Z,100004.84
2023-09-08T20:18:38.539Z,100000.00
2023-09-08T20:21:06.498Z,99999.44
2023-09-08T20:23:35.826Z,100004.09
2023-09-08T20:26:04.236Z,100007.31
2023-09-08T20:28:33.059Z,100007.75
2023-09-08T20:33:30.961Z,99999.94
2023-09-08T20:35:58.214Z,100009.47
2023-09-08T20:38:25.412Z,100021.88
2023-09-08T20:40:53.715Z,100016.97
2023-09-08T20:43:24.052Z,100017.97
2023-09-08T20:45:57.161Z,100018.19
2023-09-08T20:48:24.451Z,100021.81
2023-09-08T20:51:21.482Z,100025.22
2023-09-08T20:53:48.445Z,100016.47
2023-09-08T20:56:15.434Z,100010.59
2023-09-08T20:58:43.776Z,100011.69
2023-09-08T21:01:11.369Z,100016.34
2023-09-08T21:03:39.040Z,100015.78
2023-09-08T21:06:07.026Z,100019.44
2023-09-08T21:08:34.494Z,100014.94
2023-09-08T21:11:03.305Z,100016.84
2023-09-08T21:13:30.812Z,100019.78
2023-09-08T21:15:57.695Z,100028.16
2023-09-08T21:18:24.517Z,100023.34
2023-09-08T21:20:51.495Z,100017.94
2023-09-08T21:23:20.447Z,100019.13
2023-09-08T21:25:47.454Z,100015.19
2023-09-08T21:28:14.403Z,100023.94
2023-09-08T21:30:41.254Z,100028.53
2023-09-08T21:33:11.539Z,100015.78
2023-09-08T21:35:39.162Z,100017.50
2023-09-08T21:38:06.195Z,100012.47
2023-09-08T21:40:33.311Z,100013.72
2023-09-08T21:43:00.208Z,100015.44
2023-09-08T21:45:28.051Z,100011.81
2023-09-08T21:47:55.126Z,100009.03
2023-09-08T21:50:23.593Z,100012.66
2023-09-08T21:52:53.783Z,100004.59
2023-09-08T21:55:25.038Z,100010.41
2023-09-08T21:57:53.039Z,100015.41
2023-09-08T22:00:22.454Z,100011.78
2023-09-08T22:02:49.538Z,100017.81
2023-09-08T22:05:17.912Z,100014.19
2023-09-08T22:07:45.938Z,100014.88
2023-09-08T22:10:14.059Z,100015.25
2023-09-08T22:12:42.562Z,100023.84
2023-09-08T22:15:10.402Z,100008.41
2023-09-08T22:17:39.586Z,100013.78
2023-09-08T22:20:14.507Z,100011.09
2023-09-08T22:22:41.925Z,100005.59
2023-09-08T22:25:12.312Z,100014.19
2023-09-08T22:27:41.168Z,100005.91
2023-09-08T22:30:09.510Z,100008.66
2023-09-08T22:32:38.014Z,100010.72
2023-09-08T22:35:06.114Z,100008.13
2023-09-08T22:37:35.585Z,100005.81
2023-09-08T22:40:06.790Z,100011.75
2023-09-08T22:42:33.906Z,100009.06
2023-09-08T22:45:02.553Z,100008.31
2023-09-08T22:47:29.334Z,100003.16
2023-09-08T22:50:07.926Z,99999.63
2023-09-08T22:52:35.571Z,100006.41
2023-09-08T22:55:17.528Z,100011.44
2023-09-08T22:57:51.492Z,100007.13
2023-09-08T23:00:18.845Z,100005.22
2023-09-08T23:02:47.739Z,100008.50
2023-09-08T23:05:15.169Z,100000.25
2023-09-08T23:07:45.607Z,100004.59
2023-09-08T23:10:15.262Z,100007.88
2023-09-08T23:12:46.316Z,100011.56
2023-09-08T23:15:14.988Z,100007.66
2023-09-08T23:17:41.922Z,100003.03
2023-09-08T23:20:16.053Z,99995.59
2023-09-08T23:22:44.521Z,99994.13
2023-09-08T23:25:11.931Z,99993.47
2023-09-08T23:27:38.996Z,99989.88
2023-09-08T23:30:07.193Z,99984.41
2023-09-08T23:32:36.366Z,99985.53
2023-09-08T23:35:05.344Z,99980.38
2023-09-08T23:37:32.173Z,99980.66
2023-09-08T23:40:00.272Z,99980.75
2023-09-08T23:42:27.211Z,99979.06
2023-09-08T23:44:54.125Z,99979.41
2023-09-08T23:47:21.118Z,99979.84
2023-09-08T23:49:47.952Z,99988.00
2023-09-08T23:52:15.962Z,99976.94
2023-09-08T23:54:43.865Z,99981.63
2023-09-08T23:57:11.992Z,99977.34
2023-09-08T23:59:38.790Z,99980.00
